createdAt,value
2022-11-29T00:02:21.770Z,39.60
2022-11-29T00:05:36.545Z,33.72
2022-11-29T00:08:52.577Z,38.53
2022-11-29T00:12:01.216Z,36.67
2022-11-29T00:15:15.553Z,44.93
2022-11-29T00:18:17.353Z,38.30
2022-11-29T00:21:32.637Z,35.35
2022-11-29T00:24:34.415Z,37.72
2022-11-29T00:27:49.550Z,33.83
2022-11-29T00:30:51.486Z,40.97
2022-11-29T00:34:08.578Z,32.67
2022-11-29T00:37:16.582Z,42.53
2022-11-29T00:40:25.202Z,40.72
2022-11-29T00:43:33.569Z,28.67
2022-11-29T00:46:48.584Z,37.77
2022-11-29T00:49:57.246Z,36.17
2022-11-29T00:53:05.597Z,35.85
2022-11-29T00:56:20.588Z,38.10
2022-11-29T00:59:29.594Z,43.07
2022-11-29T01:02:38.257Z,41.80
2022-11-29T01:05:46.615Z,36.80
2022-11-29T01:08:55.317Z,32.92
2022-11-29T01:12:03.595Z,33.85
2022-11-29T01:15:13.906Z,34.20
2022-11-29T01:18:22.590Z,30.00
2022-11-29T01:21:44.574Z,32.35
2022-11-29T01:24:52.554Z,34.35
2022-11-29T01:28:01.234Z,33.55
2022-11-29T01:31:19.587Z,30.80
2022-11-29T01:34:34.682Z,31.07
2022-11-29T01:37:49.598Z,30.58
2022-11-29T01:41:02.892Z,25.85
2022-11-29T01:44:51.613Z,27.50
2022-11-29T01:48:07.584Z,27.00
2022-11-29T01:51:09.437Z,27.50
2022-11-29T01:54:26.579Z,29.73
2022-11-29T01:57:35.587Z,27.90
2022-11-29T02:00:51.571Z,30.85
2022-11-29T02:03:53.886Z,26.97
2022-11-29T02:07:09.709Z,26.80
2022-11-29T02:10:18.579Z,24.02
2022-11-29T02:14:07.193Z,30.52
2022-11-29T02:17:44.641Z,22.25
2022-11-29T02:21:22.611Z,25.43
2022-11-29T02:24:52.637Z,27.50
2022-11-29T02:28:39.640Z,25.20
2022-11-29T02:32:14.611Z,25.00
2022-11-29T02:35:49.632Z,27.70
2022-11-29T02:39:18.722Z,23.53
2022-11-29T02:42:56.180Z,23.87
2022-11-29T02:46:20.632Z,17.42
2022-11-29T02:49:55.590Z,21.62
2022-11-29T02:53:17.061Z,20.30
2022-11-29T02:56:50.610Z,20.43
2022-11-29T03:00:09.630Z,21.93
2022-11-29T03:03:27.349Z,23.42
2022-11-29T03:06:57.609Z,22.62
2022-11-29T03:10:28.361Z,22.75
2022-11-29T03:13:56.631Z,23.33
2022-11-29T03:17:23.626Z,21.63
2022-11-29T03:20:44.615Z,20.27
2022-11-29T03:23:57.263Z,20.37
2022-11-29T03:27:18.662Z,24.58
2022-11-29T03:30:20.870Z,21.57
2022-11-29T03:34:03.667Z,21.87
2022-11-29T03:37:22.613Z,28.50
2022-11-29T03:40:42.258Z,32.72
2022-11-29T03:44:09.630Z,24.70
2022-11-29T03:47:32.681Z,23.90
2022-11-29T03:50:46.629Z,27.80
2022-11-29T03:54:03.552Z,25.45
2022-11-29T03:57:24.641Z,27.25
2022-11-29T04:00:40.642Z,26.67
2022-11-29T04:04:17.595Z,24.47
2022-11-29T04:07:39.435Z,34.33
2022-11-29T04:11:13.779Z,25.27
2022-11-29T04:14:30.804Z,25.25
2022-11-29T04:18:15.605Z,28.40
2022-11-29T04:22:00.686Z,30.43
2022-11-29T04:25:32.654Z,23.77
2022-11-29T04:29:17.703Z,25.10
2022-11-29T04:32:43.427Z,25.48
2022-11-29T04:36:18.626Z,22.17
2022-11-29T04:39:48.705Z,23.33
2022-11-29T04:43:22.678Z,26.83
2022-11-29T04:47:00.639Z,22.87
2022-11-29T04:50:32.322Z,24.40
2022-11-29T04:54:04.702Z,25.98
2022-11-29T04:57:17.797Z,28.50
2022-11-29T05:00:32.651Z,24.47
2022-11-29T05:03:55.446Z,23.10
2022-11-29T05:07:26.943Z,24.75
2022-11-29T05:10:58.713Z,21.70
2022-11-29T05:14:23.438Z,23.77
2022-11-29T05:17:42.657Z,19.43
2022-11-29T05:21:18.062Z,23.92
2022-11-29T05:24:53.711Z,19.85
2022-11-29T05:28:15.438Z,21.37
2022-11-29T05:35:08.714Z,20.83
2022-11-29T05:38:50.733Z,19.37
2022-11-29T05:42:18.684Z,19.48
2022-11-29T05:45:34.977Z,25.48
2022-11-29T05:49:07.711Z,21.30
2022-11-29T05:52:38.729Z,24.73
2022-11-29T05:56:03.717Z,22.50
2022-11-29T05:59:20.752Z,20.35
2022-11-29T06:02:58.825Z,20.88
2022-11-29T06:06:06.974Z,23.47
2022-11-29T06:09:35.774Z,21.77
2022-11-29T06:12:59.722Z,26.65
2022-11-29T06:16:29.825Z,33.92
2022-11-29T06:20:01.886Z,26.85
2022-11-29T06:23:30.717Z,28.70
2022-11-29T06:27:04.851Z,23.63
2022-11-29T06:30:19.746Z,25.80
2022-11-29T06:33:50.673Z,24.87
2022-11-29T06:37:07.163Z,32.85
2022-11-29T06:40:23.822Z,29.87
2022-11-29T06:43:26.233Z,25.90
2022-11-29T06:46:53.763Z,25.92
2022-11-29T06:50:38.834Z,22.23
2022-11-29T06:53:51.681Z,28.38
2022-11-29T06:57:23.722Z,30.47
2022-11-29T07:00:34.779Z,26.27
2022-11-29T07:04:23.130Z,29.67
2022-11-29T07:07:40.802Z,27.42
2022-11-29T07:10:43.820Z,25.30
2022-11-29T07:14:00.744Z,26.60
2022-11-29T07:17:46.720Z,33.80
2022-11-29T07:21:27.722Z,26.65
2022-11-29T07:25:04.906Z,29.27
2022-11-29T07:28:32.868Z,28.10
2022-11-29T07:32:08.831Z,33.77
2022-11-29T07:35:39.743Z,30.37
2022-11-29T07:39:03.880Z,32.33
2022-11-29T07:42:33.051Z,27.05
2022-11-29T07:45:35.702Z,29.70
2022-11-29T07:48:58.502Z,23.37
2022-11-29T07:52:16.758Z,26.47
2022-11-29T07:55:21.327Z,30.85
2022-11-29T07:58:35.808Z,24.48
2022-11-29T08:01:37.666Z,24.33
2022-11-29T08:04:52.718Z,26.97
2022-11-29T08:07:54.503Z,27.77
2022-11-29T08:11:16.699Z,35.08
2022-11-29T08:14:18.539Z,34.60
2022-11-29T08:17:34.779Z,34.78
2022-11-29T08:20:44.326Z,28.97
2022-11-29T08:23:59.703Z,32.77
2022-11-29T08:27:07.840Z,29.17
2022-11-29T08:30:22.727Z,25.73
2022-11-29T08:33:30.766Z,27.33
2022-11-29T08:36:39.290Z,26.33
2022-11-29T08:39:47.790Z,29.13
2022-11-29T08:43:04.801Z,37.83
2022-11-29T08:46:06.845Z,30.60
2022-11-29T08:49:21.825Z,29.25
2022-11-29T08:52:33.874Z,28.30
2022-11-29T08:55:44.798Z,41.27
2022-11-29T08:58:53.377Z,30.75
2022-11-29T09:02:01.848Z,37.33
2022-11-29T09:05:13.118Z,34.72
2022-11-29T09:08:21.794Z,31.77
2022-11-29T09:11:39.734Z,32.13
2022-11-29T09:14:41.589Z,29.33
2022-11-29T09:17:56.854Z,27.48
2022-11-29T09:21:08.050Z,27.62
2022-11-29T09:24:22.718Z,31.23
2022-11-29T09:27:37.842Z,27.60
2022-11-29T09:30:46.703Z,30.65
2022-11-29T09:33:58.276Z,35.08
2022-11-29T09:37:12.835Z,27.05
2022-11-29T09:40:27.573Z,28.73
2022-11-29T09:44:05.738Z,27.00
2022-11-29T09:47:37.746Z,28.65
2022-11-29T09:50:48.348Z,25.92
2022-11-29T09:54:23.778Z,25.70
2022-11-29T09:57:39.810Z,25.13
2022-11-29T10:00:49.628Z,42.67
2022-11-29T10:04:09.758Z,31.87
2022-11-29T10:07:25.832Z,31.70
2022-11-29T10:10:50.842Z,27.33
2022-11-29T10:14:05.781Z,31.93
2022-11-29T10:17:33.482Z,29.53
2022-11-29T10:20:52.130Z,26.55
2022-11-29T10:24:17.844Z,33.08
2022-11-29T10:27:28.793Z,35.97
2022-11-29T10:30:39.007Z,33.43
2022-11-29T10:33:56.930Z,31.37
2022-11-29T10:37:06.837Z,33.38
2022-11-29T10:40:23.477Z,31.98
2022-11-29T10:43:38.826Z,33.28
2022-11-29T10:46:47.818Z,24.80
2022-11-29T10:50:03.985Z,33.07
2022-11-29T10:53:11.483Z,34.65
2022-11-29T10:56:30.844Z,39.05
2022-11-29T10:59:38.867Z,48.92
2022-11-29T11:02:47.819Z,36.60
2022-11-29T11:06:07.858Z,36.97
2022-11-29T11:09:34.845Z,35.05
2022-11-29T11:13:01.751Z,33.85
2022-11-29T11:16:22.876Z,35.35
2022-11-29T11:19:38.271Z,31.80
2022-11-29T11:23:06.874Z,35.83
2022-11-29T11:26:12.923Z,36.95
2022-11-29T11:29:32.906Z,34.58
2022-11-29T11:32:58.451Z,44.05
2022-11-29T11:36:21.014Z,38.43
2022-11-29T11:39:30.941Z,39.23
2022-11-29T11:42:46.878Z,30.83
2022-11-29T11:45:54.301Z,39.83
2022-11-29T11:49:08.868Z,40.08
2022-11-29T11:52:21.250Z,36.77
2022-11-29T11:55:41.888Z,38.73
2022-11-29T11:59:03.988Z,43.22
2022-11-29T12:02:40.686Z,42.33
2022-11-29T12:06:00.817Z,42.55
2022-11-29T12:09:45.864Z,41.47
2022-11-29T12:13:01.926Z,48.60
2022-11-29T12:16:19.867Z,40.72
2022-11-29T12:19:43.114Z,25.15
2022-11-29T12:23:15.978Z,46.60
2022-11-29T12:27:00.008Z,37.47
2022-11-29T12:29:59.149Z,39.43
2022-11-29T12:33:33.843Z,28.35
2022-11-29T12:37:03.831Z,30.42
2022-11-29T12:40:23.780Z,29.37
2022-11-29T12:43:56.108Z,34.07
2022-11-29T12:47:38.405Z,36.17
2022-11-29T12:51:10.276Z,39.05
2022-11-29T12:54:51.847Z,47.58
2022-11-29T12:58:20.867Z,43.25
2022-11-29T13:01:42.599Z,36.70
2022-11-29T13:05:19.895Z,32.27
2022-11-29T13:08:54.931Z,45.88
2022-11-29T13:12:05.603Z,35.88
2022-11-29T13:15:28.875Z,39.60
2022-11-29T13:18:53.490Z,51.67
2022-11-29T13:22:29.945Z,30.40
2022-11-29T13:25:45.954Z,41.58
2022-11-29T13:29:04.946Z,37.78
2022-11-29T13:32:38.959Z,40.47
2022-11-29T13:36:04.916Z,37.83
2022-11-29T13:39:50.217Z,35.47
2022-11-29T13:43:31.989Z,28.27
2022-11-29T13:47:08.911Z,32.17
2022-11-29T13:50:37.510Z,26.17
2022-11-29T13:53:57.273Z,29.97
2022-11-29T13:57:06.510Z,37.47
2022-11-29T14:00:44.511Z,38.40
2022-11-29T14:04:13.898Z,46.85
2022-11-29T14:07:31.956Z,41.78
2022-11-29T14:10:56.863Z,41.57
2022-11-29T14:14:46.435Z,41.73
2022-11-29T14:17:58.872Z,39.88
2022-11-29T14:21:18.817Z,50.90
2022-11-29T14:24:48.126Z,41.92
2022-11-29T14:28:02.273Z,46.23
2022-11-29T14:31:20.214Z,44.30
2022-11-29T14:34:34.087Z,42.60
2022-11-29T14:38:21.290Z,44.42
2022-11-29T14:42:15.887Z,44.47
2022-11-29T14:45:24.751Z,43.27
2022-11-29T14:48:40.938Z,49.57
2022-11-29T14:52:22.933Z,42.92
2022-11-29T14:55:35.757Z,38.47
2022-11-29T14:58:43.939Z,40.80
2022-11-29T15:01:53.794Z,37.53
2022-11-29T15:05:03.994Z,33.53
2022-11-29T15:08:48.940Z,38.85
2022-11-29T15:11:57.930Z,28.30
2022-11-29T15:15:29.954Z,31.98
2022-11-29T15:18:51.742Z,38.50
2022-11-29T15:22:28.919Z,28.27
2022-11-29T15:25:53.920Z,33.58
2022-11-29T15:29:21.906Z,28.40
2022-11-29T15:32:29.180Z,38.00
2022-11-29T15:35:44.970Z,35.10
2022-11-29T15:38:57.131Z,38.03
2022-11-29T15:42:21.954Z,37.13
2022-11-29T15:45:34.476Z,46.67
2022-11-29T15:48:49.031Z,31.60
2022-11-29T15:52:03.888Z,35.90
2022-11-29T15:55:20.997Z,36.27
2022-11-29T15:58:26.287Z,38.72
2022-11-29T16:01:41.926Z,41.20
2022-11-29T16:04:47.068Z,43.05
2022-11-29T16:08:11.038Z,33.30
2022-11-29T16:11:29.959Z,39.23
2022-11-29T16:14:49.783Z,36.85
2022-11-29T16:17:58.979Z,42.55
2022-11-29T16:21:32.900Z,37.63
2022-11-29T16:25:03.042Z,39.80
2022-11-29T16:28:11.925Z,34.47
2022-11-29T16:31:23.702Z,34.05
2022-11-29T16:34:35.954Z,41.97
2022-11-29T16:37:46.487Z,37.13
2022-11-29T16:41:10.295Z,40.70
2022-11-29T16:45:05.052Z,42.80
2022-11-29T16:48:34.979Z,46.17
2022-11-29T16:51:46.145Z,40.83
2022-11-29T16:54:56.021Z,45.53
2022-11-29T16:58:04.618Z,56.80
2022-11-29T17:01:29.981Z,46.43
2022-11-29T17:04:38.740Z,45.33
2022-11-29T17:07:48.079Z,46.63
2022-11-29T17:11:06.201Z,47.22
2022-11-29T17:14:08.474Z,44.47
2022-11-29T17:17:25.079Z,50.43
2022-11-29T17:20:27.205Z,49.20
2022-11-29T17:23:48.970Z,53.75
2022-11-29T17:26:51.081Z,48.80
2022-11-29T17:30:06.163Z,42.23
2022-11-29T17:33:08.038Z,48.63
2022-11-29T17:36:25.970Z,43.08
2022-11-29T17:39:27.766Z,42.50
2022-11-29T17:42:43.074Z,50.10
2022-11-29T17:45:58.070Z,51.63
2022-11-29T17:49:07.998Z,45.50
2022-11-29T17:52:16.634Z,47.55
2022-11-29T17:55:31.111Z,48.33
2022-11-29T17:58:39.981Z,49.70
2022-11-29T18:01:48.874Z,43.43
2022-11-29T18:04:57.098Z,49.47
2022-11-29T18:08:12.141Z,40.92
2022-11-29T18:11:17.233Z,44.10
2022-11-29T18:14:32.083Z,43.05
2022-11-29T18:17:33.899Z,42.53
2022-11-29T18:20:49.003Z,45.43
2022-11-29T18:23:59.468Z,48.33
2022-11-29T18:27:14.069Z,42.70
2022-11-29T18:30:16.213Z,43.78
2022-11-29T18:33:31.039Z,49.13
2022-11-29T18:36:43.982Z,44.20
2022-11-29T18:39:59.022Z,46.67
2022-11-29T18:43:15.015Z,47.72
2022-11-29T18:46:26.122Z,49.47
2022-11-29T18:49:34.612Z,49.00
2022-11-29T18:52:56.000Z,53.57
2022-11-29T18:56:00.834Z,45.97
2022-11-29T18:59:18.983Z,45.33
2022-11-29T19:02:29.098Z,62.35
2022-11-29T19:05:39.014Z,48.53
2022-11-29T19:08:48.158Z,65.27
2022-11-29T19:11:56.713Z,53.17
2022-11-29T19:15:05.994Z,48.85
2022-11-29T19:18:17.771Z,62.53
2022-11-29T19:21:35.090Z,42.88
2022-11-29T19:24:49.991Z,48.93
2022-11-29T19:27:51.905Z,47.17
2022-11-29T19:31:07.099Z,53.72
2022-11-29T19:34:09.129Z,47.25
2022-11-29T19:37:24.002Z,46.78
2022-11-29T19:40:33.031Z,52.07
2022-11-29T19:43:49.203Z,47.23
2022-11-29T19:46:51.099Z,47.50
2022-11-29T19:50:06.047Z,51.55
2022-11-29T19:53:07.985Z,49.03
2022-11-29T19:56:24.034Z,46.97
2022-11-29T19:59:39.048Z,47.43
2022-11-29T20:02:55.046Z,48.38
2022-11-29T20:05:56.939Z,46.90
2022-11-29T20:09:13.063Z,49.63
2022-11-29T20:12:15.529Z,48.87
2022-11-29T20:15:30.037Z,42.43
2022-11-29T20:18:33.190Z,45.72
2022-11-29T20:21:52.151Z,42.90
2022-11-29T20:25:07.006Z,45.05
2022-11-29T20:28:15.630Z,43.50
2022-11-29T20:31:26.150Z,41.80
2022-11-29T20:34:34.923Z,41.25
2022-11-29T20:38:12.033Z,40.63
2022-11-29T20:41:45.002Z,43.50
2022-11-29T20:44:54.645Z,39.17
2022-11-29T20:48:17.019Z,40.20
2022-11-29T20:51:33.289Z,40.35
2022-11-29T20:54:48.085Z,40.17
2022-11-29T20:57:49.979Z,35.13
2022-11-29T21:01:06.032Z,39.20
2022-11-29T21:04:15.865Z,38.13
2022-11-29T21:07:34.027Z,41.08
2022-11-29T21:10:36.641Z,35.22
2022-11-29T21:13:51.051Z,39.60
2022-11-29T21:16:53.239Z,44.57
2022-11-29T21:20:09.065Z,44.23
2022-11-29T21:23:49.131Z,41.33
2022-11-29T21:27:04.081Z,37.22
2022-11-29T21:30:26.081Z,41.40
2022-11-29T21:33:34.735Z,37.40
2022-11-29T21:36:45.038Z,37.67
2022-11-29T21:40:01.051Z,36.10
2022-11-29T21:43:09.699Z,35.80
2022-11-29T21:46:19.108Z,38.22
2022-11-29T21:49:36.123Z,36.50
2022-11-29T21:52:44.753Z,46.20
2022-11-29T21:56:04.092Z,36.45
2022-11-29T21:59:05.941Z,35.28
2022-11-29T22:02:21.165Z,41.80
2022-11-29T22:05:30.062Z,38.40
2022-11-29T22:08:48.047Z,37.60
2022-11-29T22:11:56.742Z,35.47
2022-11-29T22:15:12.048Z,40.08
2022-11-29T22:18:13.974Z,34.47
2022-11-29T22:21:30.077Z,37.53
2022-11-29T22:24:46.482Z,32.43
2022-11-29T22:27:54.673Z,33.88
2022-11-29T22:31:16.978Z,33.80
2022-11-29T22:34:27.126Z,40.55
2022-11-29T22:37:36.143Z,35.30
2022-11-29T22:40:44.682Z,33.97
2022-11-29T22:43:53.085Z,41.33
2022-11-29T22:47:01.751Z,35.28
2022-11-29T22:50:17.129Z,31.55
2022-11-29T22:53:25.815Z,35.57
2022-11-29T22:56:37.122Z,32.03
2022-11-29T22:59:45.776Z,33.50
2022-11-29T23:02:54.065Z,35.60
2022-11-29T23:06:07.659Z,36.58
2022-11-29T23:09:26.054Z,33.03
2022-11-29T23:12:28.253Z,37.93
2022-11-29T23:15:43.070Z,30.75
2022-11-29T23:18:59.054Z,37.60
2022-11-29T23:22:14.112Z,36.35
2022-11-29T23:25:22.760Z,34.43
2022-11-29T23:28:31.118Z,36.67
2022-11-29T23:31:40.381Z,37.72
2022-11-29T23:34:49.239Z,38.78
2022-11-29T23:37:57.575Z,40.95
2022-11-29T23:41:06.114Z,36.47
2022-11-29T23:44:21.115Z,38.77
2022-11-29T23:47:22.983Z,40.85
2022-11-29T23:50:38.267Z,36.42
2022-11-29T23:53:40.709Z,40.83
2022-11-29T23:56:55.167Z,34.67
